sensor_id;sensor_type;location;lat;lon;timestamp;pressure;altitude;pressure_sealevel;temperature;humidity
45467;BME280;31212;49.734;8.490;2023-04-25T00:02:21;99976.06;;;7.46;95.76
45467;BME280;31212;49.734;8.490;2023-04-25T00:04:48;99980.34;;;7.42;96.06
45467;BME280;31212;49.734;8.490;2023-04-25T00:07:15;99970.06;;;7.45;96.37
45467;BME280;31212;49.734;8.490;2023-04-25T00:09:43;99978.66;;;7.46;96.22
45467;BME280;31212;49.734;8.490;2023-04-25T00:12:09;99977.81;;;7.45;96.38
45467;BME280;31212;49.734;8.490;2023-04-25T00:14:36;99973.47;;;7.41;97.25
45467;BME280;31212;49.734;8.490;2023-04-25T00:17:03;99978.59;;;7.39;97.45
45467;BME280;31212;49.734;8.490;2023-04-25T00:19:29;99973.50;;;7.47;96.92
45467;BME280;31212;49.734;8.490;2023-04-25T00:21:56;99972.66;;;7.48;97.10
45467;BME280;31212;49.734;8.490;2023-04-25T00:24:23;99985.59;;;7.51;97.91
45467;BME280;31212;49.734;8.490;2023-04-25T00:26:51;99979.59;;;7.55;97.61
45467;BME280;31212;49.734;8.490;2023-04-25T00:29:17;99979.59;;;7.54;97.40
45467;BME280;31212;49.734;8.490;2023-04-25T00:31:43;99976.16;;;7.56;97.34
45467;BME280;31212;49.734;8.490;2023-04-25T00:34:10;99977.00;;;7.55;97.52
45467;BME280;31212;49.734;8.490;2023-04-25T00:36:36;99982.25;;;7.65;97.46
45467;BME280;31212;49.734;8.490;2023-04-25T00:39:03;99975.38;;;7.65;97.65
45467;BME280;31212;49.734;8.490;2023-04-25T00:41:32;99977.97;;;7.67;97.84
45467;BME280;31212;49.734;8.490;2023-04-25T00:44:00;99977.94;;;7.64;98.11
45467;BME280;31212;49.734;8.490;2023-04-25T00:46:28;99979.69;;;7.66;97.41
45467;BME280;31212;49.734;8.490;2023-04-25T00:48:55;99971.91;;;7.62;98.14
45467;BME280;31212;49.734;8.490;2023-04-25T00:51:21;99970.16;;;7.59;98.17
45467;BME280;31212;49.734;8.490;2023-04-25T00:53:49;99971.09;;;7.70;98.16
45467;BME280;31212;49.734;8.490;2023-04-25T00:56:16;99966.75;;;7.65;98.25
45467;BME280;31212;49.734;8.490;2023-04-25T00:58:43;99967.59;;;7.62;98.23
45467;BME280;31212;49.734;8.490;2023-04-25T01:01:11;99977.00;;;7.55;98.58
45467;BME280;31212;49.734;8.490;2023-04-25T01:03:39;99974.44;;;7.57;97.95
45467;BME280;31212;49.734;8.490;2023-04-25T01:06:08;99974.41;;;7.51;98.24
45467;BME280;31212;49.734;8.490;2023-04-25T01:08:36;99980.44;;;7.53;98.74
45467;BME280;31212;49.734;8.490;2023-04-25T01:11:03;99983.81;;;7.46;99.04
45467;BME280;31212;49.734;8.490;2023-04-25T01:13:30;99972.66;;;7.50;98.90
45467;BME280;31212;49.734;8.490;2023-04-25T01:15:57;99968.34;;;7.47;99.57
45467;BME280;31212;49.734;8.490;2023-04-25T01:18:25;99974.34;;;7.46;98.82
45467;BME280;31212;49.734;8.490;2023-04-25T01:20:52;99973.56;;;7.52;99.35
45467;BME280;31212;49.734;8.490;2023-04-25T01:23:22;99968.34;;;7.50;99.82
45467;BME280;31212;49.734;8.490;2023-04-25T01:25:50;99972.72;;;7.56;99.33
45467;BME280;31212;49.734;8.490;2023-04-25T01:28:17;99965.75;;;7.50;98.95
45467;BME280;31212;49.734;8.490;2023-04-25T01:30:44;99967.41;;;7.40;99.74
45467;BME280;31212;49.734;8.490;2023-04-25T01:33:12;99964.81;;;7.37;99.60
45467;BME280;31212;49.734;8.490;2023-04-25T01:35:40;99967.38;;;7.36;99.48
45467;BME280;31212;49.734;8.490;2023-04-25T01:38:06;99970.84;;;7.39;100.00
45467;BME280;31212;49.734;8.490;2023-04-25T01:40:37;99964.81;;;7.37;99.42
45467;BME280;31212;49.734;8.490;2023-04-25T01:43:05;99971.66;;;7.35;99.28
45467;BME280;31212;49.734;8.490;2023-04-25T01:45:31;99974.25;;;7.34;99.69
45467;BME280;31212;49.734;8.490;2023-04-25T01:47:58;99966.50;;;7.34;100.00
45467;BME280;31212;49.734;8.490;2023-04-25T01:50:25;99965.63;;;7.32;100.00
45467;BME280;31212;49.734;8.490;2023-04-25T01:52:52;99969.06;;;7.32;99.79
45467;BME280;31212;49.734;8.490;2023-04-25T01:55:19;99966.47;;;7.32;99.77
45467;BME280;31212;49.734;8.490;2023-04-25T01:57:58;99968.13;;;7.26;99.65
45467;BME280;31212;49.734;8.490;2023-04-25T02:00:39;99974.97;;;7.19;100.00
45467;BME280;31212;49.734;8.490;2023-04-25T02:03:06;99976.69;;;7.20;100.00
45467;BME280;31212;49.734;8.490;2023-04-25T02:05:36;99973.22;;;7.16;100.00
45467;BME280;31212;49.734;8.490;2023-04-25T02:08:08;99972.38;;;7.19;100.00
45467;BME280;31212;49.734;8.490;2023-04-25T02:10:35;99960.38;;;7.22;100.00
45467;BME280;31212;49.734;8.490;2023-04-25T02:13:10;99974.09;;;7.17;100.00
45467;BME280;31212;49.734;8.490;2023-04-25T02:15:57;99971.47;;;7.15;100.00
45467;BME280;31212;49.734;8.490;2023-04-25T02:18:24;99970.69;;;7.21;100.00
45467;BME280;31212;49.734;8.490;2023-04-25T02:20:51;99968.06;;;7.18;100.00
45467;BME280;31212;49.734;8.490;2023-04-25T02:23:19;99973.25;;;7.19;100.00
45467;BME280;31212;49.734;8.490;2023-04-25T02:25:46;99966.38;;;7.23;100.00
45467;BME280;31212;49.734;8.490;2023-04-25T02:28:14;99975.03;;;7.23;100.00
45467;BME280;31212;49.734;8.490;2023-04-25T02:30:40;99966.41;;;7.24;100.00
45467;BME280;31212;49.734;8.490;2023-04-25T02:33:07;99957.78;;;7.22;100.00
45467;BME280;31212;49.734;8.490;2023-04-25T02:35:35;99973.31;;;7.26;100.00
45467;BME280;31212;49.734;8.490;2023-04-25T02:38:02;99963.88;;;7.28;100.00
45467;BME280;31212;49.734;8.490;2023-04-25T02:40:28;99966.44;;;7.26;100.00
45467;BME280;31212;49.734;8.490;2023-04-25T02:42:55;99958.69;;;7.26;100.00
45467;BME280;31212;49.734;8.490;2023-04-25T02:45:22;99955.22;;;7.26;100.00
45467;BME280;31212;49.734;8.490;2023-04-25T02:47:49;99960.38;;;7.22;100.00
45467;BME280;31212;49.734;8.490;2023-04-25T02:50:18;99962.97;;;7.26;100.00
45467;BME280;31212;49.734;8.490;2023-04-25T02:52:44;99959.63;;;7.34;100.00
45467;BME280;31212;49.734;8.490;2023-04-25T02:55:15;99963.91;;;7.35;100.00
45467;BME280;31212;49.734;8.490;2023-04-25T02:57:42;99953.66;;;7.43;100.00
45467;BME280;31212;49.734;8.490;2023-04-25T03:00:13;99952.81;;;7.41;100.00
45467;BME280;31212;49.734;8.490;2023-04-25T03:02:42;99955.41;;;7.43;100.00
45467;BME280;31212;49.734;8.490;2023-04-25T03:05:08;99961.53;;;7.57;100.00
45467;BME280;31212;49.734;8.490;2023-04-25T03:07:35;99954.63;;;7.54;100.00
45467;BME280;31212;49.734;8.490;2023-04-25T03:10:02;99957.25;;;7.64;100.00
45467;BME280;31212;49.734;8.490;2023-04-25T03:12:30;99960.69;;;7.61;100.00
45467;BME280;31212;49.734;8.490;2023-04-25T03:14:57;99963.25;;;7.60;100.00
45467;BME280;31212;49.734;8.490;2023-04-25T03:17:23;99962.44;;;7.62;100.00
45467;BME280;31212;49.734;8.490;2023-04-25T03:19:51;99951.25;;;7.62;100.00
45467;BME280;31212;49.734;8.490;2023-04-25T03:22:18;99957.31;;;7.65;100.00
45467;BME280;31212;49.734;8.490;2023-04-25T03:24:44;99952.97;;;7.63;100.00
45467;BME280;31212;49.734;8.490;2023-04-25T03:27:13;99954.69;;;7.64;100.00
45467;BME280;31212;49.734;8.490;2023-04-25T03:29:40;99954.66;;;7.61;100.00
45467;BME280;31212;49.734;8.490;2023-04-25T03:32:06;99957.25;;;7.59;100.00
45467;BME280;31212;49.734;8.490;2023-04-25T03:34:33;99959.88;;;7.65;100.00
45467;BME280;31212;49.734;8.490;2023-04-25T03:37:01;99953.81;;;7.58;100.00
45467;BME280;31212;49.734;8.490;2023-04-25T03:39:31;99953.75;;;7.54;100.00
45467;BME280;31212;49.734;8.490;2023-04-25T03:41:57;99952.91;;;7.55;100.00
45467;BME280;31212;49.734;8.490;2023-04-25T03:44:24;99951.22;;;7.60;100.00
45467;BME280;31212;49.734;8.490;2023-04-25T03:46:51;99939.16;;;7.56;100.00
45467;BME280;31212;49.734;8.490;2023-04-25T03:49:18;99952.84;;;7.50;100.00
45467;BME280;31212;49.734;8.490;2023-04-25T03:51:57;99952.00;;;7.53;100.00
45467;BME280;31212;49.734;8.490;2023-04-25T03:54:25;99952.84;;;7.50;100.00
45467;BME280;31212;49.734;8.490;2023-04-25T03:57:02;99961.47;;;7.49;100.00
45467;BME280;31212;49.734;8.490;2023-04-25T03:59:31;99962.38;;;7.54;100.00
45467;BME280;31212;49.734;8.490;2023-04-25T04:01:58;99964.16;;;7.60;100.00
45467;BME280;31212;49.734;8.490;2023-04-25T04:04:25;99965.84;;;7.61;100.00
45467;BME280;31212;49.734;8.490;2023-04-25T04:06:52;99960.69;;;7.61;100.00
45467;BME280;31212;49.734;8.490;2023-04-25T04:09:25;99963.25;;;7.58;100.00
45467;BME280;31212;49.734;8.490;2023-04-25T04:11:53;99960.72;;;7.63;100.00
45467;BME280;31212;49.734;8.490;2023-04-25T04:14:20;99970.31;;;7.76;100.00
45467;BME280;31212;49.734;8.490;2023-04-25T04:16:48;99974.56;;;7.72;100.00
45467;BME280;31212;49.734;8.490;2023-04-25T04:19:17;99971.16;;;7.80;100.00
45467;BME280;31212;49.734;8.490;2023-04-25T04:21:51;99970.38;;;7.87;100.00
45467;BME280;31212;49.734;8.490;2023-04-25T04:24:17;99960.84;;;7.81;99.05
45467;BME280;31212;49.734;8.490;2023-04-25T04:26:53;99958.25;;;7.78;99.30
45467;BME280;31212;49.734;8.490;2023-04-25T04:29:34;99956.56;;;7.80;98.69
45467;BME280;31212;49.734;8.490;2023-04-25T04:32:19;99959.91;;;7.73;98.01
45467;BME280;31212;49.734;8.490;2023-04-25T04:34:46;99962.44;;;7.62;97.40
45467;BME280;31212;49.734;8.490;2023-04-25T04:37:15;99963.25;;;7.60;98.28
45467;BME280;31212;49.734;8.490;2023-04-25T04:39:42;99968.50;;;7.69;98.16
45467;BME280;31212;49.734;8.490;2023-04-25T04:42:23;99969.31;;;7.60;98.01
45467;BME280;31212;49.734;8.490;2023-04-25T04:44:57;99982.31;;;7.72;98.94
45467;BME280;31212;49.734;8.490;2023-04-25T04:47:46;99986.66;;;7.78;99.28
45467;BME280;31212;49.734;8.490;2023-04-25T04:50:32;99985.81;;;7.81;98.46
45467;BME280;31212;49.734;8.490;2023-04-25T04:53:22;99983.16;;;7.71;98.37
45467;BME280;31212;49.734;8.490;2023-04-25T04:56:01;99985.84;;;7.82;98.83
45467;BME280;31212;49.734;8.490;2023-04-25T04:58:37;99995.31;;;7.83;98.34
45467;BME280;31212;49.734;8.490;2023-04-25T05:01:11;99993.59;;;7.85;98.10
45467;BME280;31212;49.734;8.490;2023-04-25T05:03:57;99999.59;;;7.78;98.20
45467;BME280;31212;49.734;8.490;2023-04-25T05:06:44;99998.75;;;7.78;98.25
45467;BME280;31212;49.734;8.490;2023-04-25T05:09:26;100010.81;;;7.80;98.49
45467;BME280;31212;49.734;8.490;2023-04-25T05:12:06;100010.84;;;7.89;99.06
45467;BME280;31212;49.734;8.490;2023-04-25T05:14:55;100016.91;;;7.90;99.22
45467;BME280;31212;49.734;8.490;2023-04-25T05:17:36;100009.16;;;7.91;98.92
45467;BME280;31212;49.734;8.490;2023-04-25T05:20:05;100015.31;;;8.07;99.03
45467;BME280;31212;49.734;8.490;2023-04-25T05:22:54;100015.53;;;8.40;98.26
45467;BME280;31212;49.734;8.490;2023-04-25T05:25:34;99998.25;;;8.36;96.09
45467;BME280;31212;49.734;8.490;2023-04-25T05:28:14;99981.00;;;8.36;93.88
45467;BME280;31212;49.734;8.490;2023-04-25T05:30:50;99962.91;;;8.38;92.51
45467;BME280;31212;49.734;8.490;2023-04-25T05:33:21;99951.69;;;8.37;91.55
45467;BME280;31212;49.734;8.490;2023-04-25T05:35:48;99935.34;;;8.41;90.95
45467;BME280;31212;49.734;8.490;2023-04-25T05:38:15;99930.25;;;8.49;89.61
45467;BME280;31212;49.734;8.490;2023-04-25T05:41:02;99928.50;;;8.47;88.78
45467;BME280;31212;49.734;8.490;2023-04-25T05:43:41;99919.06;;;8.61;88.51
45467;BME280;31212;49.734;8.490;2023-04-25T05:46:23;99919.97;;;8.74;88.65
45467;BME280;31212;49.734;8.490;2023-04-25T05:49:08;99883.75;;;8.80;86.57
45467;BME280;31212;49.734;8.490;2023-04-25T05:51:55;99851.78;;;8.69;85.23
45467;BME280;31212;49.734;8.490;2023-04-25T05:54:40;99870.66;;;8.40;85.45
45467;BME280;31212;49.734;8.490;2023-04-25T05:57:07;99882.00;;;8.67;85.87
45467;BME280;31212;49.734;8.490;2023-04-25T05:59:33;99838.78;;;8.39;84.46
45467;BME280;31212;49.734;8.490;2023-04-25T06:02:02;99782.69;;;8.18;81.89
45467;BME280;31212;49.734;8.490;2023-04-25T06:04:31;99783.53;;;8.19;82.08
45467;BME280;31212;49.734;8.490;2023-04-25T06:06:59;99762.00;;;8.35;80.96
45467;BME280;31212;49.734;8.490;2023-04-25T06:09:26;99744.78;;;8.42;80.16
45467;BME280;31212;49.734;8.490;2023-04-25T06:11:53;99705.13;;;8.17;79.35
45467;BME280;31212;49.734;8.490;2023-04-25T06:14:19;99694.75;;;8.21;78.83
45467;BME280;31212;49.734;8.490;2023-04-25T06:16:48;99668.03;;;8.15;77.74
45467;BME280;31212;49.734;8.490;2023-04-25T06:19:16;99664.56;;;8.09;77.98
45467;BME280;31212;49.734;8.490;2023-04-25T06:21:43;99690.47;;;8.11;78.41
45467;BME280;31212;49.734;8.490;2023-04-25T06:24:10;99668.88;;;8.14;77.39
45467;BME280;31212;49.734;8.490;2023-04-25T06:26:37;99645.63;;;8.04;76.78
45467;BME280;31212;49.734;8.490;2023-04-25T06:29:04;99618.91;;;8.29;75.73
45467;BME280;31212;49.734;8.490;2023-04-25T06:31:30;99648.22;;;8.21;76.82
45467;BME280;31212;49.734;8.490;2023-04-25T06:33:59;99587.91;;;8.21;75.44
45467;BME280;31212;49.734;8.490;2023-04-25T06:36:28;99598.25;;;8.10;75.86
45467;BME280;31212;49.734;8.490;2023-04-25T06:39:01;99595.66;;;8.24;75.35
45467;BME280;31212;49.734;8.490;2023-04-25T06:41:28;99604.25;;;8.21;75.17
45467;BME280;31212;49.734;8.490;2023-04-25T06:44:00;99558.59;;;8.06;74.64
45467;BME280;31212;49.734;8.490;2023-04-25T06:46:34;99550.84;;;8.19;74.02
45467;BME280;31212;49.734;8.490;2023-04-25T06:49:01;99576.66;;;8.31;74.08
45467;BME280;31212;49.734;8.490;2023-04-25T06:51:29;99537.03;;;8.37;73.56
45467;BME280;31212;49.734;8.490;2023-04-25T06:53:56;99552.53;;;8.35;74.04
45467;BME280;31212;49.734;8.490;2023-04-25T06:56:32;99567.22;;;8.10;73.90
45467;BME280;31212;49.734;8.490;2023-04-25T06:59:06;99587.03;;;8.13;74.09
45467;BME280;31212;49.734;8.490;2023-04-25T07:01:35;99578.44;;;8.07;73.98
45467;BME280;31212;49.734;8.490;2023-04-25T07:04:05;99627.53;;;8.18;74.46
45467;BME280;31212;49.734;8.490;2023-04-25T07:06:36;99664.59;;;8.28;75.10
45467;BME280;31212;49.734;8.490;2023-04-25T07:09:07;99648.22;;;8.34;74.57
45467;BME280;31212;49.734;8.490;2023-04-25T07:11:35;99601.66;;;8.57;73.41
45467;BME280;31212;49.734;8.490;2023-04-25T07:14:02;99564.56;;;8.72;72.47
45467;BME280;31212;49.734;8.490;2023-04-25T07:16:28;99594.72;;;8.79;73.06
45467;BME280;31212;49.734;8.490;2023-04-25T07:18:55;99589.56;;;8.79;72.87
45467;BME280;31212;49.734;8.490;2023-04-25T07:21:22;99567.03;;;9.00;72.34
45467;BME280;31212;49.734;8.490;2023-04-25T07:23:51;99536.84;;;8.97;71.56
45467;BME280;31212;49.734;8.490;2023-04-25T07:26:23;99547.22;;;8.94;71.97
45467;BME280;31212;49.734;8.490;2023-04-25T07:29:10;99490.34;;;8.82;70.63
45467;BME280;31212;49.734;8.490;2023-04-25T07:31:36;99524.81;;;8.90;70.98
45467;BME280;31212;49.734;8.490;2023-04-25T07:34:03;99541.22;;;8.87;71.37
45467;BME280;31212;49.734;8.490;2023-04-25T07:36:31;99536.81;;;9.05;71.14
45467;BME280;31212;49.734;8.490;2023-04-25T07:38:59;99560.91;;;9.21;71.03
45467;BME280;31212;49.734;8.490;2023-04-25T07:41:25;99523.78;;;9.19;70.57
45467;BME280;31212;49.734;8.490;2023-04-25T07:43:52;99569.63;;;9.06;71.53
45467;BME280;31212;49.734;8.490;2023-04-25T07:46:20;99627.25;;;9.54;72.06
45467;BME280;31212;49.734;8.490;2023-04-25T07:48:46;99539.00;;;9.73;70.28
45467;BME280;31212;49.734;8.490;2023-04-25T07:51:13;99454.25;;;9.84;68.33
45467;BME280;31212;49.734;8.490;2023-04-25T07:53:40;99447.38;;;9.79;67.92
45467;BME280;31212;49.734;8.490;2023-04-25T07:56:12;99457.63;;;9.88;68.20
45467;BME280;31212;49.734;8.490;2023-04-25T07:59:07;99480.75;;;10.14;67.74
45467;BME280;31212;49.734;8.490;2023-04-25T08:01:39;99503.63;;;10.60;68.27
45467;BME280;31212;49.734;8.490;2023-04-25T08:04:06;99512.31;;;11.25;66.67
45467;BME280;31212;49.734;8.490;2023-04-25T08:06:47;99391.00;;;11.30;65.16
45467;BME280;31212;49.734;8.490;2023-04-25T08:09:18;99396.97;;;11.37;65.26
45467;BME280;31212;49.734;8.490;2023-04-25T08:11:48;99400.75;;;11.16;64.80
45467;BME280;31212;49.734;8.490;2023-04-25T08:14:20;99417.31;;;11.08;64.80
45467;BME280;31212;49.734;8.490;2023-04-25T08:16:47;99450.06;;;11.17;65.19
45467;BME280;31212;49.734;8.490;2023-04-25T08:19:14;99415.53;;;11.10;64.87
45467;BME280;31212;49.734;8.490;2023-04-25T08:21:41;99424.38;;;10.97;64.88
45467;BME280;31212;49.734;8.490;2023-04-25T08:24:13;99396.31;;;10.62;64.67
45467;BME280;31212;49.734;8.490;2023-04-25T08:26:40;99410.13;;;10.65;64.58
45467;BME280;31212;49.734;8.490;2023-04-25T08:29:10;99413.69;;;10.56;64.39
45467;BME280;31212;49.734;8.490;2023-04-25T08:31:39;99466.81;;;10.23;64.99
45467;BME280;31212;49.734;8.490;2023-04-25T08:34:07;99518.69;;;10.21;66.52
45467;BME280;31212;49.734;8.490;2023-04-25T08:36:41;99523.03;;;10.22;66.25
45467;BME280;31212;49.734;8.490;2023-04-25T08:39:46;99557.41;;;10.44;66.86
45467;BME280;31212;49.734;8.490;2023-04-25T08:42:32;99508.91;;;10.54;65.03
45467;BME280;31212;49.734;8.490;2023-04-25T08:45:03;99493.00;;;10.81;64.46
45467;BME280;31212;49.734;8.490;2023-04-25T08:47:34;99429.88;;;11.35;62.90
45467;BME280;31212;49.734;8.490;2023-04-25T08:50:03;99421.38;;;11.80;63.03
45467;BME280;31212;49.734;8.490;2023-04-25T08:52:36;99416.47;;;12.55;61.64
45467;BME280;31212;49.734;8.490;2023-04-25T08:55:04;99295.69;;;12.98;59.13
45467;BME280;31212;49.734;8.490;2023-04-25T08:57:34;99318.66;;;12.44;59.48
45467;BME280;31212;49.734;8.490;2023-04-25T09:00:03;99295.22;;;12.81;58.89
45467;BME280;31212;49.734;8.490;2023-04-25T09:02:33;99287.31;;;13.21;58.37
45467;BME280;31212;49.734;8.490;2023-04-25T09:05:02;99247.69;;;13.41;57.35
45467;BME280;31212;49.734;8.490;2023-04-25T09:07:29;99265.50;;;14.18;57.01
45467;BME280;31212;49.734;8.490;2023-04-25T09:09:56;99144.91;;;14.87;54.13
45467;BME280;31212;49.734;8.490;2023-04-25T09:12:25;99119.28;;;14.73;53.53
45467;BME280;31212;49.734;8.490;2023-04-25T09:15:07;99119.50;;;14.40;53.36
45467;BME280;31212;49.734;8.490;2023-04-25T09:17:55;99120.47;;;15.13;52.91
45467;BME280;31212;49.734;8.490;2023-04-25T09:20:22;99152.28;;;16.18;52.46
45467;BME280;31212;49.734;8.490;2023-04-25T09:23:01;98984.72;;;17.36;47.79
45467;BME280;31212;49.734;8.490;2023-04-25T09:25:34;99002.75;;;16.65;47.81
45467;BME280;31212;49.734;8.490;2023-04-25T09:28:04;99056.13;;;16.01;49.32
45467;BME280;31212;49.734;8.490;2023-04-25T09:30:34;99050.31;;;15.48;49.46
45467;BME280;31212;49.734;8.490;2023-04-25T09:33:09;98944.94;;;15.01;48.18
45467;BME280;31212;49.734;8.490;2023-04-25T09:35:40;98990.59;;;14.43;49.10
45467;BME280;31212;49.734;8.490;2023-04-25T09:38:13;99064.28;;;13.99;49.90
45467;BME280;31212;49.734;8.490;2023-04-25T09:40:59;99189.59;;;15.05;50.82
45467;BME280;31212;49.734;8.490;2023-04-25T09:43:35;99037.88;;;15.31;48.11
45467;BME280;31212;49.734;8.490;2023-04-25T09:46:08;99090.97;;;16.44;48.03
45467;BME280;31212;49.734;8.490;2023-04-25T09:48:38;98922.69;;;16.00;45.78
45467;BME280;31212;49.734;8.490;2023-04-25T09:51:07;98955.22;;;16.14;45.77
45467;BME280;31212;49.734;8.490;2023-04-25T09:53:35;98877.97;;;15.63;45.00
45467;BME280;31212;49.734;8.490;2023-04-25T09:56:25;98972.81;;;14.04;47.81
45467;BME280;31212;49.734;8.490;2023-04-25T09:58:54;99071.25;;;14.25;48.88
45467;BME280;31212;49.734;8.490;2023-04-25T10:01:23;99071.75;;;13.55;49.48
45467;BME280;31212;49.734;8.490;2023-04-25T10:04:03;99164.41;;;13.37;50.99
45467;BME280;31212;49.734;8.490;2023-04-25T10:06:42;99215.00;;;13.61;51.31
45467;BME280;31212;49.734;8.490;2023-04-25T10:09:09;99129.69;;;13.36;50.26
45467;BME280;31212;49.734;8.490;2023-04-25T10:11:38;99176.38;;;13.11;51.17
45467;BME280;31212;49.734;8.490;2023-04-25T10:14:06;99205.88;;;12.78;52.03
45467;BME280;31212;49.734;8.490;2023-04-25T10:16:34;99218.22;;;12.34;52.40
45467;BME280;31212;49.734;8.490;2023-04-25T10:19:02;99285.28;;;12.21;53.52
45467;BME280;31212;49.734;8.490;2023-04-25T10:21:31;99360.94;;;12.14;54.32
45467;BME280;31212;49.734;8.490;2023-04-25T10:23:58;99379.19;;;12.12;54.53
45467;BME280;31212;49.734;8.490;2023-04-25T10:26:25;99369.78;;;12.03;54.50
45467;BME280;31212;49.734;8.490;2023-04-25T10:28:55;99385.53;;;11.95;55.20
45467;BME280;31212;49.734;8.490;2023-04-25T10:31:22;99413.00;;;11.62;55.64
45467;BME280;31212;49.734;8.490;2023-04-25T10:33:50;99478.97;;;11.53;57.32
45467;BME280;31212;49.734;8.490;2023-04-25T10:36:18;99506.91;;;11.42;57.31
45467;BME280;31212;49.734;8.490;2023-04-25T10:38:47;99553.38;;;11.60;58.13
45467;BME280;31212;49.734;8.490;2023-04-25T10:41:17;99517.22;;;11.47;57.22
45467;BME280;31212;49.734;8.490;2023-04-25T10:43:45;99496.78;;;11.22;57.65
45467;BME280;31212;49.734;8.490;2023-04-25T10:46:16;99507.34;;;11.09;57.88
45467;BME280;31212;49.734;8.490;2023-04-25T10:48:46;99515.06;;;11.14;57.48
45467;BME280;31212;49.734;8.490;2023-04-25T10:51:19;99497.84;;;11.08;57.37
45467;BME280;31212;49.734;8.490;2023-04-25T10:53:46;99550.41;;;11.27;57.86
45467;BME280;31212;49.734;8.490;2023-04-25T10:56:17;99572.09;;;11.25;58.83
45467;BME280;31212;49.734;8.490;2023-04-25T10:58:45;99607.59;;;11.24;59.35
45467;BME280;31212;49.734;8.490;2023-04-25T11:01:13;99555.50;;;11.35;58.24
45467;BME280;31212;49.734;8.490;2023-04-25T11:03:41;99588.34;;;11.39;58.98
45467;BME280;31212;49.734;8.490;2023-04-25T11:06:17;99549.13;;;11.55;57.50
45467;BME280;31212;49.734;8.490;2023-04-25T11:08:48;99574.13;;;11.65;57.53
45467;BME280;31212;49.734;8.490;2023-04-25T11:11:16;99538.66;;;11.61;57.40
45467;BME280;31212;49.734;8.490;2023-04-25T11:13:42;99554.19;;;11.66;57.45
45467;BME280;31212;49.734;8.490;2023-04-25T11:16:09;99535.81;;;11.76;57.05
45467;BME280;31212;49.734;8.490;2023-04-25T11:18:35;99565.47;;;12.21;56.90
45467;BME280;31212;49.734;8.490;2023-04-25T11:21:03;99507.97;;;12.36;56.11
45467;BME280;31212;49.734;8.490;2023-04-25T11:23:31;99496.00;;;12.70;55.54
45467;BME280;31212;49.734;8.490;2023-04-25T11:25:58;99482.50;;;12.94;55.16
45467;BME280;31212;49.734;8.490;2023-04-25T11:28:26;99432.44;;;12.80;54.36
45467;BME280;31212;49.734;8.490;2023-04-25T11:30:53;99469.59;;;13.65;54.35
45467;BME280;31212;49.734;8.490;2023-04-25T11:33:23;99387.84;;;14.30;52.39
45467;BME280;31212;49.734;8.490;2023-04-25T11:35:49;99317.97;;;14.97;50.25
45467;BME280;31212;49.734;8.490;2023-04-25T11:38:16;99210.25;;;15.38;48.67
45467;BME280;31212;49.734;8.490;2023-04-25T11:40:44;99225.44;;;15.52;48.56
45467;BME280;31212;49.734;8.490;2023-04-25T11:43:15;99164.41;;;15.27;47.63
45467;BME280;31212;49.734;8.490;2023-04-25T11:45:51;99140.72;;;15.32;47.62
45467;BME280;31212;49.734;8.490;2023-04-25T11:48:44;99195.00;;;15.00;48.30
45467;BME280;31212;49.734;8.490;2023-04-25T11:51:57;99215.25;;;14.11;49.88
45467;BME280;31212;49.734;8.490;2023-04-25T11:54:54;99201.59;;;13.10;50.39
45467;BME280;31212;49.734;8.490;2023-04-25T11:57:46;99316.00;;;13.20;51.81
45467;BME280;31212;49.734;8.490;2023-04-25T12:00:44;99381.44;;;13.45;52.66
45467;BME280;31212;49.734;8.490;2023-04-25T12:03:37;99299.81;;;13.74;50.87
45467;BME280;31212;49.734;8.490;2023-04-25T12:07:05;99276.41;;;13.40;51.04
45467;BME280;31212;49.734;8.490;2023-04-25T12:10:36;99333.84;;;13.35;51.61
45467;BME280;31212;49.734;8.490;2023-04-25T12:13:27;99307.94;;;13.29;51.54
45467;BME280;31212;49.734;8.490;2023-04-25T12:16:19;99375.47;;;13.40;52.19
45467;BME280;31212;49.734;8.490;2023-04-25T12:19:20;99388.91;;;12.85;52.80
45467;BME280;31212;49.734;8.490;2023-04-25T12:22:47;99404.28;;;12.57;53.70
45467;BME280;31212;49.734;8.490;2023-04-25T12:25:43;99445.88;;;12.60;54.40
45467;BME280;31212;49.734;8.490;2023-04-25T12:28:45;99415.44;;;13.03;53.07
45467;BME280;31212;49.734;8.490;2023-04-25T12:31:26;99396.56;;;12.93;52.55
45467;BME280;31212;49.734;8.490;2023-04-25T12:34:28;99390.16;;;12.67;52.86
45467;BME280;31212;49.734;8.490;2023-04-25T12:41:16;99444.16;;;12.59;53.73
45467;BME280;31212;49.734;8.490;2023-04-25T12:44:33;99421.53;;;12.17;53.90
45467;BME280;31212;49.734;8.490;2023-04-25T12:47:22;99484.34;;;11.99;55.08
45467;BME280;31212;49.734;8.490;2023-04-25T12:50:17;99533.06;;;11.86;55.86
45467;BME280;31212;49.734;8.490;2023-04-25T12:53:17;99459.38;;;11.87;54.50
45467;BME280;31212;49.734;8.490;2023-04-25T12:56:14;99469.56;;;12.01;54.94
45467;BME280;31212;49.734;8.490;2023-04-25T12:59:04;99547.44;;;12.58;55.29
45467;BME280;31212;49.734;8.490;2023-04-25T13:02:21;99487.06;;;12.83;53.80
45467;BME280;31212;49.734;8.490;2023-04-25T13:05:02;99441.16;;;12.77;53.28
45467;BME280;31212;49.734;8.490;2023-04-25T13:07:57;99387.47;;;13.47;51.29
45467;BME280;31212;49.734;8.490;2023-04-25T13:10:46;99385.00;;;14.38;50.63
45467;BME280;31212;49.734;8.490;2023-04-25T13:13:32;99232.03;;;14.59;47.76
45467;BME280;31212;49.734;8.490;2023-04-25T13:16:29;99179.31;;;14.75;47.05
45467;BME280;31212;49.734;8.490;2023-04-25T13:19:22;99147.56;;;15.36;46.12
45467;BME280;31212;49.734;8.490;2023-04-25T13:22:18;99116.25;;;15.57;45.58
45467;BME280;31212;49.734;8.490;2023-04-25T13:24:57;99077.06;;;14.59;46.06
45467;BME280;31212;49.734;8.490;2023-04-25T13:27:36;99194.97;;;14.20;47.94
45467;BME280;31212;49.734;8.490;2023-04-25T13:30:20;99241.13;;;13.89;49.02
45467;BME280;31212;49.734;8.490;2023-04-25T13:33:07;99309.41;;;13.05;50.78
45467;BME280;31212;49.734;8.490;2023-04-25T13:35:46;99323.41;;;13.37;50.52
45467;BME280;31212;49.734;8.490;2023-04-25T13:38:53;99285.41;;;13.61;49.71
45467;BME280;31212;49.734;8.490;2023-04-25T13:41:30;99227.31;;;13.23;49.21
45467;BME280;31212;49.734;8.490;2023-04-25T13:44:13;99292.25;;;13.30;49.96